Time;durP1;ratioP1;P1;durP2;ratioP2;P2;SDS_P1;SDS_P2;PMS_P1;PMS_P2;Temp;Humidity;BMP_temperature;BMP_pressure;BME280_temperature;BME280_humidity;BME280_pressure;Samples;Min_cycle;Max_cycle;Signal;HPM_P1;HPM_P2
2021/11/10 00:00:27;;;;;;;13.60;7.35;;;2.60;99.90;;;;;;5026447;28;20115;-71
2021/11/10 00:02:54;;;;;;;11.15;7.65;;;2.50;99.90;;;;;;5023979;28;20449;-71
2021/11/10 00:05:21;;;;;;;16.75;8.80;;;2.50;99.90;;;;;;5008505;28;20045;-71
2021/11/10 00:07:48;;;;;;;16.13;9.35;;;2.50;99.90;;;;;;5027401;28;20060;-71
2021/11/10 00:10:16;;;;;;;16.13;7.88;;;2.50;99.90;;;;;;5008146;28;20083;-71
2021/11/10 00:12:43;;;;;;;14.57;7.88;;;2.50;99.90;;;;;;5026350;28;20130;-72
2021/11/10 00:15:10;;;;;;;16.95;9.73;;;2.50;99.90;;;;;;5023145;28;20133;-72
2021/11/10 00:17:38;;;;;;;17.95;8.50;;;2.50;99.90;;;;;;5026052;28;20061;-71
2021/11/10 00:20:07;;;;;;;15.77;7.45;;;2.40;99.90;;;;;;5026522;28;20057;-72
2021/11/10 00:22:34;;;;;;;18.83;8.18;;;2.30;99.90;;;;;;5007391;28;20041;-72
2021/11/10 00:25:01;;;;;;;15.75;7.88;;;2.20;99.90;;;;;;5008020;28;20061;-71
2021/11/10 00:27:28;;;;;;;10.57;6.00;;;2.30;99.90;;;;;;5026342;28;20569;-72
2021/11/10 00:29:56;;;;;;;17.15;6.78;;;2.30;99.90;;;;;;5024914;28;20612;-72
2021/11/10 00:32:23;;;;;;;12.55;7.38;;;2.10;99.90;;;;;;5007508;28;20131;-72
2021/11/10 00:34:50;;;;;;;14.65;7.72;;;2.10;99.90;;;;;;4996700;28;20049;-71
2021/11/10 00:37:17;;;;;;;23.20;9.30;;;2.00;99.90;;;;;;4991169;28;20152;-71
2021/11/10 00:39:44;;;;;;;15.40;6.82;;;1.80;99.90;;;;;;5007426;28;20530;-72
2021/11/10 00:42:11;;;;;;;11.90;6.18;;;1.80;99.90;;;;;;5026346;28;20830;-73
2021/11/10 00:44:38;;;;;;;15.38;6.05;;;1.80;99.90;;;;;;5026826;28;20048;-72
2021/11/10 00:47:05;;;;;;;14.05;6.53;;;1.80;99.90;;;;;;5021950;28;20049;-72
2021/11/10 00:49:32;;;;;;;18.95;6.70;;;1.80;99.90;;;;;;5006998;28;20124;-71
2021/11/10 00:51:59;;;;;;;11.98;5.97;;;1.80;99.90;;;;;;5007311;28;20562;-71
2021/11/10 00:54:26;;;;;;;14.20;6.10;;;1.70;99.90;;;;;;4990892;28;20060;-71
2021/11/10 00:56:55;;;;;;;14.48;6.28;;;1.60;99.90;;;;;;5012533;28;20055;-72
2021/11/10 00:59:22;;;;;;;11.45;5.90;;;1.60;99.90;;;;;;5034217;28;20132;-71
2021/11/10 01:01:50;;;;;;;14.30;6.28;;;1.60;99.90;;;;;;5023842;28;20060;-72
2021/11/10 01:04:17;;;;;;;17.13;7.97;;;1.50;99.90;;;;;;5007669;28;20051;-71
2021/11/10 01:06:45;;;;;;;13.25;6.25;;;1.50;99.90;;;;;;5008109;28;20152;-72
2021/11/10 01:09:17;;;;;;;12.75;6.93;;;1.50;99.90;;;;;;5006759;28;20499;-72
2021/11/10 01:11:46;;;;;;;19.10;8.00;;;1.40;99.90;;;;;;4990967;28;20141;-72
2021/11/10 01:14:15;;;;;;;18.08;6.82;;;1.40;99.90;;;;;;5025701;28;20042;-72
2021/11/10 01:16:43;;;;;;;15.52;7.13;;;1.40;99.90;;;;;;5006553;28;20590;-72
2021/11/10 01:19:11;;;;;;;15.77;7.68;;;1.30;99.90;;;;;;4988576;28;20119;-72
2021/11/10 01:21:38;;;;;;;18.27;6.93;;;1.30;99.90;;;;;;4988383;28;20245;-72
2021/11/10 01:24:05;;;;;;;13.82;6.93;;;1.40;99.90;;;;;;5025029;28;20071;-72
2021/11/10 01:26:34;;;;;;;15.95;6.68;;;1.20;99.90;;;;;;5006225;28;20136;-72
2021/11/10 01:29:01;;;;;;;23.92;7.93;;;1.20;99.90;;;;;;5024879;28;20613;-72
2021/11/10 01:31:28;;;;;;;16.00;6.43;;;1.20;99.90;;;;;;5006020;28;20068;-72
2021/11/10 01:33:56;;;;;;;16.17;6.57;;;1.30;99.90;;;;;;4988983;28;20046;-72
2021/11/10 01:36:23;;;;;;;13.80;6.82;;;1.40;99.90;;;;;;5007325;28;20065;-72
2021/11/10 01:38:50;;;;;;;14.00;6.85;;;1.30;99.90;;;;;;5025449;28;20049;-72
2021/11/10 01:41:17;;;;;;;15.60;8.50;;;1.40;99.90;;;;;;4988637;28;20055;-72
2021/11/10 01:43:46;;;;;;;23.67;8.38;;;1.70;99.90;;;;;;5007617;28;20041;-72
2021/11/10 01:46:13;;;;;;;14.85;7.45;;;1.80;99.90;;;;;;4989605;28;20054;-71
2021/11/10 01:48:41;;;;;;;16.67;7.68;;;1.80;99.90;;;;;;5005518;28;20057;-72
2021/11/10 01:51:09;;;;;;;18.00;7.88;;;1.60;99.90;;;;;;5005345;28;20056;-71
2021/11/10 01:53:36;;;;;;;19.40;7.35;;;1.50;99.90;;;;;;5039975;28;20071;-72
2021/11/10 01:56:04;;;;;;;20.52;8.35;;;1.70;99.90;;;;;;5006199;28;20049;-72
2021/11/10 01:58:31;;;;;;;13.98;7.65;;;1.40;99.90;;;;;;5020025;28;20069;-72
2021/11/10 02:00:58;;;;;;;14.20;6.82;;;1.40;99.90;;;;;;4989326;28;20520;-72
2021/11/10 02:03:26;;;;;;;15.68;8.20;;;1.30;99.90;;;;;;4982738;28;20053;-72
2021/11/10 02:05:57;;;;;;;19.88;7.60;;;1.20;99.90;;;;;;5021694;28;20041;-72
2021/11/10 02:08:50;;;;;;;13.20;6.60;;;1.10;99.90;;;;;;5001120;28;20116;-71
2021/11/10 02:11:22;;;;;;;16.98;6.55;;;1.10;99.90;;;;;;4985127;28;20053;-72
2021/11/10 02:13:57;;;;;;;13.23;6.68;;;1.10;99.90;;;;;;5008432;28;20423;-72
2021/11/10 02:16:25;;;;;;;14.52;6.00;;;1.00;99.90;;;;;;5008747;28;20041;-72
2021/11/10 02:18:52;;;;;;;21.90;7.47;;;1.00;99.90;;;;;;4989775;28;20116;-71
2021/11/10 02:21:23;;;;;;;15.60;7.15;;;0.90;99.90;;;;;;5003556;28;20689;-71
2021/11/10 02:23:52;;;;;;;15.00;7.00;;;0.90;99.90;;;;;;4989745;28;20698;-72
2021/11/10 02:26:22;;;;;;;20.20;7.35;;;0.90;99.90;;;;;;5024056;28;20041;-73
2021/11/10 02:28:50;;;;;;;11.73;6.95;;;0.80;99.90;;;;;;5005953;28;20053;-72
2021/11/10 02:31:18;;;;;;;16.00;6.90;;;0.60;99.90;;;;;;5023456;28;20061;-73
2021/11/10 02:33:45;;;;;;;15.35;6.40;;;0.60;99.90;;;;;;4990878;28;20057;-72
2021/11/10 02:36:12;;;;;;;17.55;8.13;;;0.60;99.90;;;;;;5006781;28;20068;-72
2021/11/10 02:38:39;;;;;;;24.60;7.88;;;0.80;99.90;;;;;;4989219;28;20132;-71
2021/11/10 02:41:06;;;;;;;16.88;7.68;;;0.90;99.90;;;;;;5021970;28;20578;-72
2021/11/10 02:43:34;;;;;;;16.73;7.35;;;0.80;99.90;;;;;;5006121;28;20045;-72
2021/11/10 02:46:01;;;;;;;16.42;7.15;;;0.70;99.90;;;;;;5005192;28;20335;-72
2021/11/10 02:48:28;;;;;;;19.80;7.20;;;0.70;99.90;;;;;;5005887;28;20649;-73
2021/11/10 02:50:55;;;;;;;15.77;7.07;;;0.70;99.90;;;;;;5038277;28;20232;-72
2021/11/10 02:53:21;;;;;;;18.75;7.03;;;0.60;99.90;;;;;;5004511;28;20579;-73
2021/11/10 02:55:51;;;;;;;14.60;6.72;;;0.60;99.90;;;;;;5004435;28;20057;-72
2021/11/10 02:58:18;;;;;;;20.95;7.43;;;0.60;99.90;;;;;;5037637;28;20112;-72
2021/11/10 03:00:44;;;;;;;18.17;8.00;;;0.80;99.90;;;;;;5025217;28;20045;-72
2021/11/10 03:03:12;;;;;;;21.10;7.70;;;0.90;99.90;;;;;;4992462;28;20100;-73
2021/11/10 03:05:47;;;;;;;15.10;6.43;;;0.90;99.90;;;;;;4994521;28;20054;-73
2021/11/10 03:08:18;;;;;;;16.08;7.40;;;0.90;99.90;;;;;;5028547;28;20134;-72
2021/11/10 03:10:49;;;;;;;17.13;7.68;;;0.90;99.90;;;;;;5008776;28;20045;-71
2021/11/10 03:13:16;;;;;;;19.30;6.72;;;0.90;99.90;;;;;;5010624;28;20132;-72
2021/11/10 03:15:45;;;;;;;22.15;7.00;;;0.80;99.90;;;;;;4993730;28;20053;-73
2021/11/10 03:18:13;;;;;;;16.48;6.93;;;0.70;99.90;;;;;;5009359;28;20559;-73
2021/11/10 03:20:46;;;;;;;22.05;7.28;;;0.80;99.90;;;;;;5006396;28;20096;-72
2021/11/10 03:23:13;;;;;;;19.63;6.53;;;0.80;99.90;;;;;;5005432;28;20049;-73
2021/11/10 03:25:43;;;;;;;16.33;7.68;;;0.60;99.90;;;;;;4991612;28;20154;-72
2021/11/10 03:28:10;;;;;;;16.25;6.72;;;0.60;99.90;;;;;;5006762;28;20092;-72
2021/11/10 03:30:37;;;;;;;13.05;6.28;;;0.60;99.90;;;;;;5008534;28;20049;-72
2021/11/10 03:33:07;;;;;;;16.48;6.60;;;0.50;99.90;;;;;;4990725;28;20068;-72
2021/11/10 03:35:34;;;;;;;17.58;6.85;;;0.50;99.90;;;;;;5022380;28;20045;-72
2021/11/10 03:38:05;;;;;;;20.38;7.63;;;0.70;99.90;;;;;;5008865;28;20111;-71
2021/11/10 03:40:32;;;;;;;21.67;7.35;;;0.80;99.90;;;;;;5024048;28;20148;-72
2021/11/10 03:42:59;;;;;;;19.05;7.80;;;0.90;99.90;;;;;;4992342;28;20045;-72
2021/11/10 03:45:29;;;;;;;21.65;9.63;;;0.90;99.90;;;;;;5007708;28;20065;-72
2021/11/10 03:48:02;;;;;;;16.77;7.32;;;0.90;99.90;;;;;;5007945;28;20041;-71
2021/11/10 03:50:29;;;;;;;21.77;8.00;;;0.90;99.90;;;;;;5007593;28;20477;-71
2021/11/10 03:52:57;;;;;;;16.88;7.30;;;1.00;99.90;;;;;;5008338;28;20063;-72
2021/11/10 03:55:34;;;;;;;16.40;6.97;;;0.90;99.90;;;;;;5007413;28;20111;-72
2021/11/10 03:58:07;;;;;;;14.15;6.60;;;0.80;99.90;;;;;;4980922;28;20054;-72
2021/11/10 04:00:35;;;;;;;25.50;7.43;;;0.70;99.90;;;;;;5004585;28;20099;-72
2021/11/10 04:03:02;;;;;;;14.25;6.68;;;0.60;99.90;;;;;;5024957;28;20655;-72
2021/11/10 04:05:33;;;;;;;21.23;7.05;;;0.60;99.90;;;;;;5005301;28;20351;-71
2021/11/10 04:08:00;;;;;;;19.40;7.53;;;0.60;99.90;;;;;;5007619;28;20144;-73
2021/11/10 04:10:27;;;;;;;17.55;6.95;;;0.60;99.90;;;;;;4991272;28;20362;-72
2021/11/10 04:12:55;;;;;;;18.45;6.68;;;0.50;99.90;;;;;;4991960;28;20117;-70
2021/11/10 04:15:29;;;;;;;16.27;7.30;;;0.40;99.90;;;;;;5007130;28;20059;-73
2021/11/10 04:17:56;;;;;;;22.65;6.72;;;0.30;99.90;;;;;;5007447;28;20145;-72
2021/11/10 04:20:23;;;;;;;24.98;7.32;;;0.40;99.90;;;;;;5024678;28;20067;-72
2021/11/10 04:22:52;;;;;;;22.42;7.55;;;0.60;99.90;;;;;;5007884;28;20052;-72
2021/11/10 04:25:19;;;;;;;22.40;8.93;;;0.50;99.90;;;;;;5024384;28;20048;-71
2021/11/10 04:27:46;;;;;;;19.95;8.43;;;0.40;99.90;;;;;;5008521;28;20077;-71
2021/11/10 04:30:13;;;;;;;23.17;8.13;;;0.40;99.90;;;;;;4990050;28;20546;-72
2021/11/10 04:32:41;;;;;;;21.88;8.18;;;0.50;99.90;;;;;;4990668;28;20115;-72
2021/11/10 04:35:10;;;;;;;18.13;8.43;;;0.40;99.90;;;;;;4989072;28;20097;-72
2021/11/10 04:37:38;;;;;;;21.33;8.00;;;0.30;99.90;;;;;;5006157;28;20121;-73
2021/11/10 04:40:08;;;;;;;15.63;6.88;;;0.30;99.90;;;;;;5006253;28;20072;-72
2021/11/10 04:42:35;;;;;;;18.52;8.00;;;0.30;99.90;;;;;;4991168;28;20312;-73
2021/11/10 04:45:07;;;;;;;18.35;7.18;;;0.20;99.90;;;;;;4990965;28;20049;-72
2021/11/10 04:47:35;;;;;;;18.40;7.20;;;0.10;99.90;;;;;;4990254;28;20226;-72
2021/11/10 04:50:07;;;;;;;22.08;8.15;;;0.20;99.90;;;;;;4991067;28;20056;-73
2021/11/10 04:52:35;;;;;;;18.25;7.20;;;0.20;99.90;;;;;;5008914;28;20045;-72
2021/11/10 04:55:04;;;;;;;20.88;8.02;;;0.20;99.90;;;;;;5006652;28;20455;-73
2021/11/10 04:57:33;;;;;;;20.30;8.15;;;0.30;99.90;;;;;;5017417;28;20506;-72
2021/11/10 05:00:00;;;;;;;23.60;8.27;;;0.30;99.90;;;;;;4994594;28;20585;-73
2021/11/10 05:02:30;;;;;;;20.27;8.50;;;0.40;99.90;;;;;;5006820;28;20404;-73
2021/11/10 05:04:57;;;;;;;22.98;7.72;;;0.40;99.90;;;;;;4990083;28;20111;-72
2021/11/10 05:07:28;;;;;;;26.60;8.10;;;0.50;99.90;;;;;;5007346;28;20058;-72
2021/11/10 05:09:54;;;;;;;19.52;8.35;;;0.40;99.90;;;;;;5007490;28;20049;-72
2021/11/10 05:12:21;;;;;;;19.45;7.40;;;0.40;99.90;;;;;;4990860;28;20133;-72
2021/11/10 05:14:55;;;;;;;24.70;8.10;;;0.30;99.90;;;;;;4972473;28;20539;-73
2021/11/10 05:17:24;;;;;;;21.63;8.38;;;0.30;99.90;;;;;;4994310;28;20569;-73
2021/11/10 05:19:52;;;;;;;27.80;7.85;;;0.30;99.90;;;;;;5006166;28;20053;-71
2021/11/10 05:22:38;;;;;;;16.58;7.57;;;0.20;99.90;;;;;;4989250;28;20053;-73
2021/11/10 05:25:08;;;;;;;23.90;7.75;;;0.10;99.90;;;;;;5024417;28;20426;-73
2021/11/10 05:27:35;;;;;;;16.15;7.00;;;0.00;99.90;;;;;;5007732;28;20179;-73
2021/11/10 05:30:05;;;;;;;18.95;6.53;;;0.00;99.90;;;;;;5040572;28;20378;-72
2021/11/10 05:32:32;;;;;;;22.50;7.93;;;0.10;99.90;;;;;;5003688;28;20045;-72
2021/11/10 05:34:59;;;;;;;21.05;8.48;;;0.30;99.90;;;;;;5006230;28;20045;-72
2021/11/10 05:37:27;;;;;;;26.35;8.13;;;0.30;99.90;;;;;;5023085;28;20996;-72
2021/11/10 05:39:55;;;;;;;31.58;9.05;;;0.20;99.90;;;;;;5023043;28;20041;-72
2021/11/10 05:42:22;;;;;;;17.05;8.45;;;0.20;99.90;;;;;;5006339;28;20160;-73
2021/11/10 05:44:48;;;;;;;20.23;8.20;;;0.30;99.90;;;;;;5025615;28;20392;-72
2021/11/10 05:47:15;;;;;;;26.15;9.35;;;0.30;99.90;;;;;;5007878;28;20045;-72
2021/11/10 05:49:42;;;;;;;23.90;8.95;;;0.20;99.90;;;;;;5007070;28;20403;-72
2021/11/10 05:52:10;;;;;;;25.20;9.05;;;0.30;99.90;;;;;;5005884;28;20060;-72
2021/11/10 05:54:38;;;;;;;22.73;8.35;;;0.20;99.90;;;;;;5007111;28;20060;-72
2021/11/10 05:57:06;;;;;;;35.95;10.13;;;0.10;99.90;;;;;;5005913;28;20061;-72
2021/11/10 05:59:33;;;;;;;22.38;8.73;;;0.10;99.90;;;;;;5006775;28;20056;-72
2021/11/10 06:02:01;;;;;;;24.02;10.13;;;0.00;99.90;;;;;;5023868;28;20049;-72
2021/11/10 06:04:28;;;;;;;33.00;15.45;;;-0.10;99.90;;;;;;4990154;28;20054;-72
2021/11/10 06:06:55;;;;;;;27.65;12.45;;;-0.20;99.90;;;;;;5024083;28;20064;-72
2021/11/10 06:09:26;;;;;;;21.58;10.70;;;-0.50;99.90;;;;;;5023481;28;20061;-72
2021/11/10 06:11:53;;;;;;;25.05;10.45;;;-0.40;99.90;;;;;;5004584;28;20144;-73
2021/11/10 06:14:20;;;;;;;34.42;11.25;;;-0.30;99.90;;;;;;5025143;28;20125;-73
2021/11/10 06:16:46;;;;;;;22.10;10.13;;;-0.40;99.90;;;;;;5005885;28;20077;-73
2021/11/10 06:19:13;;;;;;;24.98;9.07;;;-0.40;99.90;;;;;;5006315;28;20061;-72
2021/11/10 06:21:40;;;;;;;22.15;10.48;;;-0.40;99.90;;;;;;5003693;28;20515;-72
2021/11/10 06:24:07;;;;;;;26.67;11.10;;;-0.20;99.90;;;;;;5024409;28;20053;-72
2021/11/10 06:26:34;;;;;;;25.27;10.35;;;-0.30;99.90;;;;;;4973066;28;20045;-71
2021/11/10 06:29:01;;;;;;;31.05;10.15;;;-0.30;99.90;;;;;;5006125;28;20456;-73
2021/11/10 06:31:28;;;;;;;16.23;9.35;;;-0.30;99.90;;;;;;5003993;28;20144;-72
2021/11/10 06:33:54;;;;;;;25.15;9.77;;;-0.30;99.90;;;;;;5022636;28;20177;-73
2021/11/10 06:36:21;;;;;;;24.00;9.27;;;-0.20;99.90;;;;;;5022162;28;20268;-73
2021/11/10 06:38:48;;;;;;;18.13;8.60;;;-0.10;99.90;;;;;;5020347;28;20197;-72
2021/11/10 06:41:18;;;;;;;23.58;9.88;;;-0.10;99.90;;;;;;5004138;28;20258;-73
2021/11/10 06:43:47;;;;;;;22.15;8.38;;;-0.20;99.90;;;;;;5003836;28;20061;-72
2021/11/10 06:46:14;;;;;;;25.70;9.18;;;-0.20;99.90;;;;;;5004740;28;20056;-72
2021/11/10 06:48:43;;;;;;;21.85;10.68;;;-0.10;99.90;;;;;;5017078;28;20065;-73
2021/11/10 06:51:14;;;;;;;17.95;10.13;;;-0.10;99.90;;;;;;4969808;28;20046;-72
2021/11/10 06:53:43;;;;;;;22.00;10.20;;;-0.10;99.90;;;;;;5007584;28;20363;-72
2021/11/10 06:56:10;;;;;;;21.42;11.23;;;-0.10;99.90;;;;;;5005901;28;20488;-72
2021/11/10 06:58:37;;;;;;;16.30;9.02;;;-0.10;99.90;;;;;;5028967;28;20076;-72
2021/11/10 07:01:04;;;;;;;24.02;11.10;;;-0.10;99.90;;;;;;5023360;28;20053;-72
2021/11/10 07:03:31;;;;;;;29.05;11.63;;;-0.10;99.90;;;;;;5023171;28;20096;-72
2021/11/10 07:05:59;;;;;;;23.58;11.30;;;-0.10;99.90;;;;;;5004533;28;20083;-72
2021/11/10 07:08:26;;;;;;;26.00;10.90;;;-0.10;99.90;;;;;;5024078;28;20045;-72
2021/11/10 07:10:52;;;;;;;24.75;10.30;;;-0.10;99.90;;;;;;5006170;28;20104;-72
2021/11/10 07:13:20;;;;;;;19.42;10.43;;;0.00;99.90;;;;;;5005626;28;20342;-71
2021/11/10 07:15:47;;;;;;;23.67;12.20;;;0.10;99.90;;;;;;5021905;28;20412;-72
2021/11/10 07:18:14;;;;;;;25.17;11.90;;;0.10;99.90;;;;;;5005944;28;20083;-72
2021/11/10 07:20:41;;;;;;;20.20;11.27;;;0.10;99.90;;;;;;5023097;28;20049;-72
2021/11/10 07:23:08;;;;;;;26.15;10.77;;;0.20;99.90;;;;;;5006599;28;20053;-73
2021/11/10 07:25:35;;;;;;;20.85;8.85;;;0.20;99.90;;;;;;5005094;28;20062;-74
2021/11/10 07:28:03;;;;;;;20.83;10.68;;;0.20;99.90;;;;;;5006062;28;20135;-74
2021/11/10 07:30:30;;;;;;;18.58;8.88;;;0.30;99.90;;;;;;5022433;28;20053;-74
2021/11/10 07:32:57;;;;;;;29.52;13.80;;;0.40;99.90;;;;;;5004635;28;20567;-74
2021/11/10 07:35:25;;;;;;;23.88;11.05;;;0.50;99.90;;;;;;5005479;28;20053;-73
2021/11/10 07:37:52;;;;;;;24.10;10.55;;;0.40;99.90;;;;;;5023792;28;20289;-73
2021/11/10 07:40:19;;;;;;;18.58;10.43;;;0.50;99.90;;;;;;5004710;28;20050;-73
2021/11/10 07:42:47;;;;;;;20.05;10.60;;;0.50;99.90;;;;;;5024341;28;20053;-74
2021/11/10 07:45:22;;;;;;;22.27;11.32;;;0.60;99.90;;;;;;5022704;28;20054;-73
2021/11/10 07:47:52;;;;;;;17.05;9.25;;;0.60;99.90;;;;;;5007635;28;20275;-73
2021/11/10 07:50:23;;;;;;;21.90;12.65;;;0.80;99.90;;;;;;5025000;28;20060;-73
2021/11/10 07:52:51;;;;;;;22.88;13.65;;;0.90;99.90;;;;;;5026492;28;20107;-74
2021/11/10 07:55:19;;;;;;;24.20;10.75;;;0.80;99.90;;;;;;5008695;28;20069;-73
2021/11/10 07:57:45;;;;;;;22.52;12.88;;;0.80;99.90;;;;;;5020965;28;20064;-74
2021/11/10 08:00:33;;;;;;;20.63;12.27;;;0.90;99.90;;;;;;5025125;28;20539;-73
2021/11/10 08:03:00;;;;;;;18.52;10.07;;;1.00;99.90;;;;;;4991823;28;20508;-73
2021/11/10 08:05:27;;;;;;;17.88;10.02;;;1.10;99.90;;;;;;5026025;28;20124;-74
2021/11/10 08:07:54;;;;;;;20.40;11.82;;;1.00;99.90;;;;;;5026012;28;20064;-74
2021/11/10 08:10:31;;;;;;;19.30;10.88;;;1.20;99.90;;;;;;5009141;28;20056;-74
2021/11/10 08:12:58;;;;;;;17.50;10.13;;;1.30;99.90;;;;;;5010048;28;20500;-74
2021/11/10 08:15:26;;;;;;;22.90;10.35;;;1.20;99.90;;;;;;5025735;28;20064;-75
2021/11/10 08:17:53;;;;;;;16.92;10.45;;;1.30;99.90;;;;;;5008916;28;20076;-74
2021/11/10 08:20:23;;;;;;;20.58;10.73;;;1.40;99.90;;;;;;5026605;28;20396;-74
2021/11/10 08:22:50;;;;;;;15.73;10.02;;;1.50;99.90;;;;;;5008332;28;20471;-72
2021/11/10 08:25:17;;;;;;;22.75;12.50;;;1.60;99.90;;;;;;5006810;28;20056;-74
2021/11/10 08:27:45;;;;;;;42.95;18.23;;;1.70;99.90;;;;;;5024890;28;20093;-74
2021/11/10 08:30:15;;;;;;;24.88;15.07;;;1.80;99.90;;;;;;5023742;28;20065;-74
2021/11/10 08:32:43;;;;;;;19.48;11.32;;;2.00;99.90;;;;;;5024680;28;20076;-74
2021/11/10 08:35:11;;;;;;;27.23;12.23;;;2.10;99.90;;;;;;5007571;28;20519;-73
2021/11/10 08:37:38;;;;;;;29.42;15.25;;;2.20;99.90;;;;;;5026100;28;20064;-75
2021/11/10 08:40:07;;;;;;;54.00;25.65;;;2.40;99.90;;;;;;5027065;28;20049;-73
2021/11/10 08:42:34;;;;;;;46.05;26.38;;;2.50;99.90;;;;;;5025522;28;20064;-74
2021/11/10 08:45:28;;;;;;;35.15;19.02;;;2.70;99.90;;;;;;5007855;28;20119;-74
2021/11/10 08:47:58;;;;;;;31.48;14.00;;;3.10;99.90;;;;;;5026197;28;20046;-73
2021/11/10 08:50:26;;;;;;;31.77;18.05;;;3.40;99.90;;;;;;5025684;28;20107;-73
2021/11/10 08:52:54;;;;;;;25.30;16.08;;;3.60;99.90;;;;;;5008226;28;20126;-73
2021/11/10 08:55:22;;;;;;;23.42;16.00;;;3.40;99.90;;;;;;4990696;28;20080;-74
2021/11/10 08:57:52;;;;;;;33.25;20.27;;;3.50;99.90;;;;;;5036210;28;20064;-74
2021/11/10 09:00:24;;;;;;;36.13;22.38;;;3.60;99.90;;;;;;5022685;28;20140;-74
2021/11/10 09:02:52;;;;;;;35.20;19.67;;;3.80;99.90;;;;;;4991380;28;20061;-74
2021/11/10 09:05:20;;;;;;;33.85;17.73;;;3.90;99.90;;;;;;5006838;28;20053;-74
2021/11/10 09:07:46;;;;;;;30.20;18.60;;;3.90;99.90;;;;;;5006908;28;20483;-73
2021/11/10 09:10:17;;;;;;;38.78;21.52;;;4.00;99.90;;;;;;5025693;28;20133;-74
2021/11/10 09:12:47;;;;;;;31.33;18.88;;;4.20;99.90;;;;;;4991020;28;20049;-73
2021/11/10 09:15:15;;;;;;;26.85;17.65;;;4.40;99.90;;;;;;5006618;28;20381;-73
2021/11/10 09:17:42;;;;;;;21.83;15.40;;;4.70;99.90;;;;;;5025715;28;20057;-73
2021/11/10 09:20:12;;;;;;;26.17;17.83;;;5.10;99.90;;;;;;5006854;28;20507;-74
2021/11/10 09:22:40;;;;;;;34.33;23.88;;;5.50;99.90;;;;;;5007253;28;20562;-74
2021/11/10 09:25:10;;;;;;;28.15;19.33;;;5.80;99.90;;;;;;5007257;28;20057;-73
2021/11/10 09:27:39;;;;;;;22.35;17.20;;;5.80;99.90;;;;;;5025554;28;20487;-73
2021/11/10 09:30:18;;;;;;;12.75;9.95;;;6.30;99.90;;;;;;5006165;28;20033;-73
2021/11/10 09:32:47;;;;;;;13.73;10.10;;;6.70;99.90;;;;;;5020033;28;20064;-74
2021/11/10 09:35:16;;;;;;;12.50;8.85;;;7.00;99.90;;;;;;5023502;28;20060;-73
2021/11/10 09:37:43;;;;;;;12.90;8.35;;;7.40;99.90;;;;;;5007044;28;20049;-73
2021/11/10 09:40:14;;;;;;;10.65;8.95;;;7.60;99.90;;;;;;5024505;28;20053;-73
2021/11/10 09:42:43;;;;;;;16.77;11.13;;;8.00;99.90;;;;;;5007344;28;20050;-73
2021/11/10 09:45:15;;;;;;;22.80;10.77;;;8.10;99.90;;;;;;5006436;28;20053;-73
2021/11/10 09:47:43;;;;;;;17.10;11.20;;;8.30;99.90;;;;;;4987249;28;20069;-74
2021/11/10 09:50:14;;;;;;;14.93;12.23;;;8.60;99.90;;;;;;5024033;28;20037;-74
2021/11/10 09:52:40;;;;;;;16.58;11.88;;;9.00;99.90;;;;;;5006904;28;20337;-74
2021/11/10 09:55:10;;;;;;;12.00;10.68;;;9.20;99.90;;;;;;5006335;28;20396;-74
2021/11/10 09:57:37;;;;;;;14.25;12.90;;;9.50;99.90;;;;;;5025066;28;20053;-73
2021/11/10 10:00:07;;;;;;;12.88;11.60;;;9.70;99.90;;;;;;5005199;28;20144;-74
2021/11/10 10:02:40;;;;;;;13.27;11.88;;;9.90;99.90;;;;;;5022118;28;20060;-74
2021/11/10 10:05:08;;;;;;;13.57;12.18;;;10.10;99.90;;;;;;5021461;28;20919;-73
2021/11/10 10:07:35;;;;;;;13.20;12.20;;;10.50;99.90;;;;;;5023984;28;20408;-73
2021/11/10 10:10:04;;;;;;;14.18;12.77;;;10.60;99.90;;;;;;5005158;28;20048;-74
2021/11/10 10:12:30;;;;;;;13.88;12.73;;;10.70;99.90;;;;;;5023663;28;20479;-74
2021/11/10 10:14:57;;;;;;;14.32;13.18;;;11.00;99.90;;;;;;5006303;28;20049;-74
2021/11/10 10:17:41;;;;;;;16.13;14.50;;;11.30;99.90;;;;;;5006056;28;20049;-73
2021/11/10 10:20:26;;;;;;;15.07;13.73;;;11.20;99.90;;;;;;5006513;28;20053;-72
2021/11/10 10:22:53;;;;;;;;;;;11.00;99.90;;;;;;5003907;28;20493;-73
2021/11/10 10:25:21;;;;;;;14.73;13.40;;;10.80;99.90;;;;;;4986385;28;19925;-73
2021/11/10 10:27:57;;;;;;;17.52;15.77;;;10.70;99.90;;;;;;4987345;28;20540;-73
2021/11/10 10:30:38;;;;;;;14.50;13.43;;;10.60;99.90;;;;;;5023410;28;20054;-74
2021/11/10 10:33:14;;;;;;;14.90;13.68;;;10.30;99.90;;;;;;5021930;28;20482;-74
2021/11/10 10:35:48;;;;;;;15.20;13.98;;;10.00;99.90;;;;;;5019375;28;20045;-73
2021/11/10 10:38:18;;;;;;;14.65;13.73;;;9.90;99.90;;;;;;5006355;28;20049;-75
2021/11/10 10:40:48;;;;;;;14.55;13.38;;;9.90;99.90;;;;;;5023320;28;20076;-74
2021/11/10 10:43:16;;;;;;;15.07;13.88;;;10.10;99.90;;;;;;5023565;28;20052;-73
2021/11/10 10:45:46;;;;;;;14.88;13.45;;;10.30;99.90;;;;;;5023531;28;20147;-73
2021/11/10 10:48:16;;;;;;;15.25;14.07;;;10.50;99.90;;;;;;5023853;28;20057;-73
2021/11/10 10:50:50;;;;;;;15.10;14.05;;;10.70;99.90;;;;;;5023392;28;20071;-74
2021/11/10 10:53:33;;;;;;;15.30;14.23;;;10.70;99.90;;;;;;5005454;28;20111;-73
2021/11/10 10:56:12;;;;;;;14.88;13.75;;;10.70;99.90;;;;;;5023781;28;20057;-75
2021/11/10 10:58:39;;;;;;;16.95;14.57;;;10.90;99.90;;;;;;5019785;28;20130;-73
2021/11/10 11:01:26;;;;;;;15.65;14.50;;;10.90;99.90;;;;;;5023695;28;20289;-74
2021/11/10 11:04:13;;;;;;;15.48;14.18;;;11.00;99.90;;;;;;5023929;28;20129;-72
2021/11/10 11:06:45;;;;;;;16.13;14.82;;;11.00;99.90;;;;;;5023581;28;20057;-74
2021/11/10 11:09:14;;;;;;;15.68;14.27;;;11.10;99.90;;;;;;5005534;28;20230;-74
2021/11/10 11:12:16;;;;;;;15.77;14.50;;;11.00;99.90;;;;;;4990719;28;20056;-74
2021/11/10 11:14:59;;;;;;;17.00;15.38;;;10.90;99.90;;;;;;5004278;28;20068;-74
2021/11/10 11:17:38;;;;;;;16.83;15.25;;;10.90;99.90;;;;;;5002858;28;20141;-73
2021/11/10 11:20:11;;;;;;;16.30;15.00;;;10.80;99.90;;;;;;5009492;28;20072;-74
2021/11/10 11:22:44;;;;;;;17.17;15.77;;;10.70;99.90;;;;;;5027565;28;20148;-74
2021/11/10 11:25:12;;;;;;;15.90;14.63;;;10.60;99.90;;;;;;5018237;28;20042;-75
2021/11/10 11:27:51;;;;;;;15.95;14.48;;;10.50;99.90;;;;;;5009810;28;20516;-75
2021/11/10 11:30:18;;;;;;;15.80;14.27;;;10.40;99.90;;;;;;5025001;28;20512;-74
2021/11/10 11:32:49;;;;;;;16.98;15.68;;;10.40;99.90;;;;;;5007909;28;20049;-74
2021/11/10 11:35:24;;;;;;;14.65;13.55;;;10.30;99.90;;;;;;5024123;28;20368;-73
2021/11/10 11:37:52;;;;;;;15.43;14.25;;;10.30;99.90;;;;;;5009835;28;20053;-73
2021/11/10 11:40:21;;;;;;;16.85;14.93;;;10.30;99.90;;;;;;5007630;28;20173;-74
2021/11/10 11:42:49;;;;;;;16.77;15.15;;;10.20;99.90;;;;;;5006785;28;20134;-74
2021/11/10 11:45:17;;;;;;;16.27;14.65;;;10.10;99.90;;;;;;5007192;28;20111;-74
2021/11/10 11:47:48;;;;;;;17.58;13.90;;;10.00;99.90;;;;;;5007729;28;20042;-74
2021/11/10 11:50:16;;;;;;;15.95;14.45;;;10.00;99.90;;;;;;4987953;28;20053;-74
2021/11/10 11:52:47;;;;;;;15.93;14.30;;;9.90;99.90;;;;;;5011407;28;20049;-75
2021/11/10 11:55:27;;;;;;;16.27;14.60;;;9.80;99.90;;;;;;4993281;28;20103;-76
2021/11/10 11:58:21;;;;;;;15.80;14.18;;;9.70;99.90;;;;;;5024065;28;20148;-75
2021/11/10 12:01:00;;;;;;;14.85;13.38;;;9.70;99.90;;;;;;5027293;28;20048;-74
2021/11/10 12:03:30;;;;;;;16.38;14.63;;;9.70;99.90;;;;;;5006897;28;20139;-75
2021/11/10 12:06:03;;;;;;;15.02;13.65;;;9.70;99.90;;;;;;5024309;28;20081;-75
2021/11/10 12:08:52;;;;;;;14.52;13.27;;;9.70;99.90;;;;;;5007562;28;20048;-75
2021/11/10 12:11:19;;;;;;;14.95;13.65;;;9.70;99.90;;;;;;5024387;28;20075;-75
2021/11/10 12:14:04;;;;;;;16.05;14.35;;;9.60;99.90;;;;;;5024547;28;20087;-75
2021/11/10 12:16:50;;;;;;;;;;;9.70;99.90;;;;;;5008419;28;20053;-76
2021/11/10 12:19:26;;;;;;;16.23;14.50;;;9.70;99.90;;;;;;5007209;28;19925;-76
2021/11/10 12:21:54;;;;;;;25.15;15.70;;;9.60;99.90;;;;;;5022661;28;20085;-75
2021/11/10 12:24:44;;;;;;;20.38;15.40;;;9.60;99.90;;;;;;5008506;28;20088;-75
2021/11/10 12:27:18;;;;;;;15.60;14.13;;;9.60;99.90;;;;;;5026281;28;20123;-76
2021/11/10 12:29:57;;;;;;;17.70;15.98;;;9.70;99.90;;;;;;5026316;28;20073;-75
2021/11/10 12:32:45;;;;;;;29.90;21.17;;;9.70;99.90;;;;;;5020727;28;20049;-76
2021/11/10 12:35:26;;;;;;;22.23;17.00;;;9.70;99.90;;;;;;5002763;28;20057;-75
2021/11/10 12:37:55;;;;;;;26.08;17.20;;;9.60;99.90;;;;;;5010473;28;20053;-76
2021/11/10 12:40:28;;;;;;;26.33;18.55;;;9.60;99.90;;;;;;5010174;28;20148;-75
2021/11/10 12:43:01;;;;;;;25.17;19.50;;;9.70;99.90;;;;;;5024396;28;20141;-76
2021/11/10 12:45:37;;;;;;;21.45;16.80;;;9.80;99.90;;;;;;5025067;28;20539;-75
2021/11/10 12:48:26;;;;;;;17.73;15.85;;;9.70;99.90;;;;;;5025079;28;20168;-76
2021/11/10 12:50:54;;;;;;;19.13;16.40;;;9.70;99.90;;;;;;5025255;28;20049;-76
2021/11/10 12:53:42;;;;;;;18.13;16.20;;;9.70;99.90;;;;;;5025918;28;20053;-76